sensor_id;sensor_type;location;lat;lon;timestamp;temperature;humidity
2611;DHT22;5612;51.134;17.058;2022-10-17T00:01:31;14.50;3.50
2611;DHT22;5612;51.134;17.058;2022-10-17T00:04:00;14.50;7.70
2611;DHT22;5612;51.134;17.058;2022-10-17T00:06:28;14.50;3.00
2611;DHT22;5612;51.134;17.058;2022-10-17T00:08:57;14.40;1.00
2611;DHT22;5612;51.134;17.058;2022-10-17T00:11:26;14.40;1.00
2611;DHT22;5612;51.134;17.058;2022-10-17T00:13:56;14.40;1.00
2611;DHT22;5612;51.134;17.058;2022-10-17T00:16:26;14.30;1.00
2611;DHT22;5612;51.134;17.058;2022-10-17T00:18:55;14.30;1.00
2611;DHT22;5612;51.134;17.058;2022-10-17T00:21:25;14.20;1.00
2611;DHT22;5612;51.134;17.058;2022-10-17T00:23:54;14.20;1.00
2611;DHT22;5612;51.134;17.058;2022-10-17T00:26:22;14.20;1.00
2611;DHT22;5612;51.134;17.058;2022-10-17T00:28:51;14.20;1.00
2611;DHT22;5612;51.134;17.058;2022-10-17T00:31:22;14.20;1.00
2611;DHT22;5612;51.134;17.058;2022-10-17T00:33:52;14.20;1.00
2611;DHT22;5612;51.134;17.058;2022-10-17T00:36:22;14.20;1.00
2611;DHT22;5612;51.134;17.058;2022-10-17T00:38:53;14.20;1.00
2611;DHT22;5612;51.134;17.058;2022-10-17T00:41:23;14.20;1.00
2611;DHT22;5612;51.134;17.058;2022-10-17T00:43:56;14.20;1.00
2611;DHT22;5612;51.134;17.058;2022-10-17T00:46:28;14.20;1.00
2611;DHT22;5612;51.134;17.058;2022-10-17T00:49:00;14.20;1.00
2611;DHT22;5612;51.134;17.058;2022-10-17T00:51:39;14.20;1.00
2611;DHT22;5612;51.134;17.058;2022-10-17T00:54:10;14.20;1.00
2611;DHT22;5612;51.134;17.058;2022-10-17T00:56:41;14.20;1.00
2611;DHT22;5612;51.134;17.058;2022-10-17T00:59:11;14.10;1.00
2611;DHT22;5612;51.134;17.058;2022-10-17T01:01:46;14.10;1.00
2611;DHT22;5612;51.134;17.058;2022-10-17T01:04:17;14.10;1.00
2611;DHT22;5612;51.134;17.058;2022-10-17T01:06:46;14.10;1.00
2611;DHT22;5612;51.134;17.058;2022-10-17T01:09:15;14.10;1.00
2611;DHT22;5612;51.134;17.058;2022-10-17T01:11:49;14.00;1.00
2611;DHT22;5612;51.134;17.058;2022-10-17T01:14:23;14.00;6.70
2611;DHT22;5612;51.134;17.058;2022-10-17T01:17:01;14.00;1.00
2611;DHT22;5612;51.134;17.058;2022-10-17T01:19:43;14.00;1.00
2611;DHT22;5612;51.134;17.058;2022-10-17T01:22:22;14.00;1.00
2611;DHT22;5612;51.134;17.058;2022-10-17T01:25:10;14.00;1.00
2611;DHT22;5612;51.134;17.058;2022-10-17T01:27:55;14.00;1.00
2611;DHT22;5612;51.134;17.058;2022-10-17T01:30:57;13.90;1.00
2611;DHT22;5612;51.134;17.058;2022-10-17T01:33:32;13.90;1.00
2611;DHT22;5612;51.134;17.058;2022-10-17T01:36:09;13.80;1.00
2611;DHT22;5612;51.134;17.058;2022-10-17T01:38:45;13.70;4.10
2611;DHT22;5612;51.134;17.058;2022-10-17T01:41:22;13.70;14.30
2611;DHT22;5612;51.134;17.058;2022-10-17T01:43:57;13.70;15.20
2611;DHT22;5612;51.134;17.058;2022-10-17T01:46:30;13.70;5.70
2611;DHT22;5612;51.134;17.058;2022-10-17T01:49:02;13.70;7.00
2611;DHT22;5612;51.134;17.058;2022-10-17T01:51:36;13.70;10.10
2611;DHT22;5612;51.134;17.058;2022-10-17T01:54:10;13.70;15.10
2611;DHT22;5612;51.134;17.058;2022-10-17T01:56:42;13.60;9.50
2611;DHT22;5612;51.134;17.058;2022-10-17T01:59:14;13.60;10.30
2611;DHT22;5612;51.134;17.058;2022-10-17T02:01:51;13.60;8.50
2611;DHT22;5612;51.134;17.058;2022-10-17T02:04:20;13.60;7.30
2611;DHT22;5612;51.134;17.058;2022-10-17T02:06:49;13.50;23.20
2611;DHT22;5612;51.134;17.058;2022-10-17T02:09:19;13.50;31.50
2611;DHT22;5612;51.134;17.058;2022-10-17T02:14:49;13.50;51.30
2611;DHT22;5612;51.134;17.058;2022-10-17T02:17:29;13.50;50.80
2611;DHT22;5612;51.134;17.058;2022-10-17T02:20:09;13.40;63.40
2611;DHT22;5612;51.134;17.058;2022-10-17T02:22:46;13.30;73.90
2611;DHT22;5612;51.134;17.058;2022-10-17T02:25:22;13.30;91.60
2611;DHT22;5612;51.134;17.058;2022-10-17T02:27:59;13.40;91.30
2611;DHT22;5612;51.134;17.058;2022-10-17T02:30:34;13.40;99.60
2611;DHT22;5612;51.134;17.058;2022-10-17T02:33:10;13.40;93.50
2611;DHT22;5612;51.134;17.058;2022-10-17T02:35:44;13.40;90.40
2611;DHT22;5612;51.134;17.058;2022-10-17T02:38:15;13.40;70.00
2611;DHT22;5612;51.134;17.058;2022-10-17T02:40:45;13.50;73.60
2611;DHT22;5612;51.134;17.058;2022-10-17T02:43:15;13.40;66.20
2611;DHT22;5612;51.134;17.058;2022-10-17T02:45:46;13.40;75.30
2611;DHT22;5612;51.134;17.058;2022-10-17T02:48:21;13.30;80.50
2611;DHT22;5612;51.134;17.058;2022-10-17T02:50:59;13.20;76.00
2611;DHT22;5612;51.134;17.058;2022-10-17T02:53:33;13.20;96.50
2611;DHT22;5612;51.134;17.058;2022-10-17T02:56:10;13.20;99.90
2611;DHT22;5612;51.134;17.058;2022-10-17T02:58:42;13.20;99.90
2611;DHT22;5612;51.134;17.058;2022-10-17T03:01:13;13.10;99.90
2611;DHT22;5612;51.134;17.058;2022-10-17T03:03:45;13.20;99.90
2611;DHT22;5612;51.134;17.058;2022-10-17T03:06:14;13.10;99.90
2611;DHT22;5612;51.134;17.058;2022-10-17T03:08:43;13.20;99.90
2611;DHT22;5612;51.134;17.058;2022-10-17T03:11:11;13.10;99.90
2611;DHT22;5612;51.134;17.058;2022-10-17T03:13:40;13.10;98.00
2611;DHT22;5612;51.134;17.058;2022-10-17T03:16:08;13.00;88.80
2611;DHT22;5612;51.134;17.058;2022-10-17T03:18:37;13.00;92.60
2611;DHT22;5612;51.134;17.058;2022-10-17T03:21:07;13.10;83.40
2611;DHT22;5612;51.134;17.058;2022-10-17T03:23:36;13.00;92.40
2611;DHT22;5612;51.134;17.058;2022-10-17T03:26:05;13.00;98.00
2611;DHT22;5612;51.134;17.058;2022-10-17T03:28:34;12.90;99.90
2611;DHT22;5612;51.134;17.058;2022-10-17T03:31:06;12.90;97.00
2611;DHT22;5612;51.134;17.058;2022-10-17T03:33:35;13.00;88.00
2611;DHT22;5612;51.134;17.058;2022-10-17T03:36:07;13.00;92.60
2611;DHT22;5612;51.134;17.058;2022-10-17T03:38:37;12.90;86.10
2611;DHT22;5612;51.134;17.058;2022-10-17T03:41:06;12.90;92.20
2611;DHT22;5612;51.134;17.058;2022-10-17T03:43:35;12.90;84.30
2611;DHT22;5612;51.134;17.058;2022-10-17T03:46:04;12.90;74.00
2611;DHT22;5612;51.134;17.058;2022-10-17T03:48:33;12.90;78.60
2611;DHT22;5612;51.134;17.058;2022-10-17T03:51:04;12.90;81.80
2611;DHT22;5612;51.134;17.058;2022-10-17T03:53:34;12.90;66.00
2611;DHT22;5612;51.134;17.058;2022-10-17T03:56:11;12.90;69.50
2611;DHT22;5612;51.134;17.058;2022-10-17T03:58:41;12.80;64.60
2611;DHT22;5612;51.134;17.058;2022-10-17T04:01:11;12.80;72.60
2611;DHT22;5612;51.134;17.058;2022-10-17T04:03:41;12.80;76.90
2611;DHT22;5612;51.134;17.058;2022-10-17T04:06:11;12.80;75.50
2611;DHT22;5612;51.134;17.058;2022-10-17T04:08:41;12.80;71.80
2611;DHT22;5612;51.134;17.058;2022-10-17T04:11:13;12.70;62.80
2611;DHT22;5612;51.134;17.058;2022-10-17T04:13:42;12.70;57.90
2611;DHT22;5612;51.134;17.058;2022-10-17T04:16:13;12.70;55.60
2611;DHT22;5612;51.134;17.058;2022-10-17T04:18:43;12.70;50.30
2611;DHT22;5612;51.134;17.058;2022-10-17T04:21:12;12.70;73.60
2611;DHT22;5612;51.134;17.058;2022-10-17T04:23:42;12.60;58.50
2611;DHT22;5612;51.134;17.058;2022-10-17T04:26:11;12.60;68.20
2611;DHT22;5612;51.134;17.058;2022-10-17T04:28:39;12.60;83.00
2611;DHT22;5612;51.134;17.058;2022-10-17T04:31:11;12.60;74.00
2611;DHT22;5612;51.134;17.058;2022-10-17T04:33:41;12.60;69.60
2611;DHT22;5612;51.134;17.058;2022-10-17T04:36:12;12.60;68.30
2611;DHT22;5612;51.134;17.058;2022-10-17T04:38:42;12.50;66.50
2611;DHT22;5612;51.134;17.058;2022-10-17T04:41:13;12.50;63.40
2611;DHT22;5612;51.134;17.058;2022-10-17T04:43:43;12.50;51.80
2611;DHT22;5612;51.134;17.058;2022-10-17T04:46:17;12.60;54.90
2611;DHT22;5612;51.134;17.058;2022-10-17T04:48:45;12.50;58.40
2611;DHT22;5612;51.134;17.058;2022-10-17T04:51:15;12.50;54.80
2611;DHT22;5612;51.134;17.058;2022-10-17T04:53:50;12.50;53.30
2611;DHT22;5612;51.134;17.058;2022-10-17T04:56:20;12.50;54.70
2611;DHT22;5612;51.134;17.058;2022-10-17T04:58:50;12.50;55.00
2611;DHT22;5612;51.134;17.058;2022-10-17T05:01:20;12.50;69.50
2611;DHT22;5612;51.134;17.058;2022-10-17T05:03:50;12.50;72.90
2611;DHT22;5612;51.134;17.058;2022-10-17T05:06:19;12.40;67.10
2611;DHT22;5612;51.134;17.058;2022-10-17T05:08:50;12.50;73.10
2611;DHT22;5612;51.134;17.058;2022-10-17T05:11:21;12.50;81.50
2611;DHT22;5612;51.134;17.058;2022-10-17T05:13:50;12.40;99.90
2611;DHT22;5612;51.134;17.058;2022-10-17T05:16:19;12.50;99.90
2611;DHT22;5612;51.134;17.058;2022-10-17T05:18:49;12.50;97.60
2611;DHT22;5612;51.134;17.058;2022-10-17T05:21:20;12.50;99.90
2611;DHT22;5612;51.134;17.058;2022-10-17T05:23:51;12.50;99.90
2611;DHT22;5612;51.134;17.058;2022-10-17T05:26:20;12.50;98.10
2611;DHT22;5612;51.134;17.058;2022-10-17T05:28:49;12.50;99.10
2611;DHT22;5612;51.134;17.058;2022-10-17T05:31:18;12.50;99.90
2611;DHT22;5612;51.134;17.058;2022-10-17T05:33:47;12.60;99.90
2611;DHT22;5612;51.134;17.058;2022-10-17T05:36:16;12.70;99.90
2611;DHT22;5612;51.134;17.058;2022-10-17T05:38:49;12.70;99.90
2611;DHT22;5612;51.134;17.058;2022-10-17T05:41:18;12.70;99.90
2611;DHT22;5612;51.134;17.058;2022-10-17T05:43:48;12.70;99.90
2611;DHT22;5612;51.134;17.058;2022-10-17T05:46:17;12.80;99.90
2611;DHT22;5612;51.134;17.058;2022-10-17T05:48:47;12.70;99.90
2611;DHT22;5612;51.134;17.058;2022-10-17T05:51:18;12.80;99.90
2611;DHT22;5612;51.134;17.058;2022-10-17T05:53:52;12.80;99.90
2611;DHT22;5612;51.134;17.058;2022-10-17T05:56:22;12.90;99.90
2611;DHT22;5612;51.134;17.058;2022-10-17T05:58:51;12.90;99.90
2611;DHT22;5612;51.134;17.058;2022-10-17T06:01:26;12.90;99.90
2611;DHT22;5612;51.134;17.058;2022-10-17T06:03:54;13.00;99.90
2611;DHT22;5612;51.134;17.058;2022-10-17T06:06:23;13.00;99.90
2611;DHT22;5612;51.134;17.058;2022-10-17T06:08:53;13.10;99.90
2611;DHT22;5612;51.134;17.058;2022-10-17T06:11:22;13.20;99.90
2611;DHT22;5612;51.134;17.058;2022-10-17T06:13:51;13.30;99.90
2611;DHT22;5612;51.134;17.058;2022-10-17T06:16:21;13.30;99.90
2611;DHT22;5612;51.134;17.058;2022-10-17T06:18:50;13.40;99.90
2611;DHT22;5612;51.134;17.058;2022-10-17T06:21:21;13.40;99.90
2611;DHT22;5612;51.134;17.058;2022-10-17T06:23:50;13.40;99.90
2611;DHT22;5612;51.134;17.058;2022-10-17T06:26:21;13.40;99.60
2611;DHT22;5612;51.134;17.058;2022-10-17T06:28:53;13.50;99.20
2611;DHT22;5612;51.134;17.058;2022-10-17T06:31:24;13.50;99.90
2611;DHT22;5612;51.134;17.058;2022-10-17T06:33:54;13.50;99.90
2611;DHT22;5612;51.134;17.058;2022-10-17T06:36:23;13.60;99.90
2611;DHT22;5612;51.134;17.058;2022-10-17T06:38:52;13.70;99.90
2611;DHT22;5612;51.134;17.058;2022-10-17T06:41:23;13.80;98.10
2611;DHT22;5612;51.134;17.058;2022-10-17T06:43:53;13.90;93.10
2611;DHT22;5612;51.134;17.058;2022-10-17T06:46:21;13.90;84.20
2611;DHT22;5612;51.134;17.058;2022-10-17T06:48:52;14.00;87.60
2611;DHT22;5612;51.134;17.058;2022-10-17T06:51:21;14.10;80.90
2611;DHT22;5612;51.134;17.058;2022-10-17T06:53:50;14.20;72.50
2611;DHT22;5612;51.134;17.058;2022-10-17T06:56:18;14.20;66.80
2611;DHT22;5612;51.134;17.058;2022-10-17T06:58:50;14.20;79.20
2611;DHT22;5612;51.134;17.058;2022-10-17T07:01:19;14.40;53.10
2611;DHT22;5612;51.134;17.058;2022-10-17T07:03:49;14.60;46.10
2611;DHT22;5612;51.134;17.058;2022-10-17T07:06:19;14.80;25.30
2611;DHT22;5612;51.134;17.058;2022-10-17T07:08:50;15.50;11.70
2611;DHT22;5612;51.134;17.058;2022-10-17T07:11:20;16.60;1.00
2611;DHT22;5612;51.134;17.058;2022-10-17T07:13:51;17.90;1.00
2611;DHT22;5612;51.134;17.058;2022-10-17T07:16:19;18.90;99.90
2611;DHT22;5612;51.134;17.058;2022-10-17T07:18:48;19.90;99.90
2611;DHT22;5612;51.134;17.058;2022-10-17T07:21:19;20.80;99.90
2611;DHT22;5612;51.134;17.058;2022-10-17T07:23:48;21.60;72.50
2611;DHT22;5612;51.134;17.058;2022-10-17T07:26:18;22.50;25.50
2611;DHT22;5612;51.134;17.058;2022-10-17T07:28:52;23.50;1.00
2611;DHT22;5612;51.134;17.058;2022-10-17T07:31:22;24.40;1.00
2611;DHT22;5612;51.134;17.058;2022-10-17T07:34:09;24.90;1.00
2611;DHT22;5612;51.134;17.058;2022-10-17T07:37:29;25.10;1.00
2611;DHT22;5612;51.134;17.058;2022-10-17T07:40:16;25.50;1.00
2611;DHT22;5612;51.134;17.058;2022-10-17T07:43:11;26.00;1.00
2611;DHT22;5612;51.134;17.058;2022-10-17T07:45:41;26.30;1.00
2611;DHT22;5612;51.134;17.058;2022-10-17T07:48:11;26.60;1.00
2611;DHT22;5612;51.134;17.058;2022-10-17T07:50:39;27.20;1.00
2611;DHT22;5612;51.134;17.058;2022-10-17T07:53:08;27.70;1.00
2611;DHT22;5612;51.134;17.058;2022-10-17T07:55:38;27.80;1.00
2611;DHT22;5612;51.134;17.058;2022-10-17T07:58:07;28.00;1.00
2611;DHT22;5612;51.134;17.058;2022-10-17T08:00:37;28.60;1.00
2611;DHT22;5612;51.134;17.058;2022-10-17T08:03:08;28.60;1.00
2611;DHT22;5612;51.134;17.058;2022-10-17T08:05:37;28.70;1.00
2611;DHT22;5612;51.134;17.058;2022-10-17T08:08:06;28.50;1.00
2611;DHT22;5612;51.134;17.058;2022-10-17T08:10:36;28.90;1.00
2611;DHT22;5612;51.134;17.058;2022-10-17T08:13:04;29.20;1.00
2611;DHT22;5612;51.134;17.058;2022-10-17T08:15:35;29.20;1.00
2611;DHT22;5612;51.134;17.058;2022-10-17T08:18:04;29.30;1.00
2611;DHT22;5612;51.134;17.058;2022-10-17T08:20:36;29.20;1.00
2611;DHT22;5612;51.134;17.058;2022-10-17T08:23:04;28.40;1.00
2611;DHT22;5612;51.134;17.058;2022-10-17T08:25:33;27.80;1.00
2611;DHT22;5612;51.134;17.058;2022-10-17T08:28:02;27.60;1.00
2611;DHT22;5612;51.134;17.058;2022-10-17T08:30:31;27.90;1.00
2611;DHT22;5612;51.134;17.058;2022-10-17T08:32:59;27.80;1.00
2611;DHT22;5612;51.134;17.058;2022-10-17T08:35:28;28.20;1.00
2611;DHT22;5612;51.134;17.058;2022-10-17T08:37:59;29.20;1.00
2611;DHT22;5612;51.134;17.058;2022-10-17T08:40:30;29.80;1.00
2611;DHT22;5612;51.134;17.058;2022-10-17T08:43:11;29.70;1.00
2611;DHT22;5612;51.134;17.058;2022-10-17T08:45:47;29.50;1.00
2611;DHT22;5612;51.134;17.058;2022-10-17T08:48:18;29.40;1.00
2611;DHT22;5612;51.134;17.058;2022-10-17T08:50:50;28.90;1.00
2611;DHT22;5612;51.134;17.058;2022-10-17T08:53:24;29.30;1.00
2611;DHT22;5612;51.134;17.058;2022-10-17T08:55:58;30.40;1.00
2611;DHT22;5612;51.134;17.058;2022-10-17T08:58:41;31.30;1.00
2611;DHT22;5612;51.134;17.058;2022-10-17T09:01:21;31.40;1.00
2611;DHT22;5612;51.134;17.058;2022-10-17T09:07:11;32.50;1.00
2611;DHT22;5612;51.134;17.058;2022-10-17T09:09:50;31.50;1.00
2611;DHT22;5612;51.134;17.058;2022-10-17T09:12:26;32.00;1.00
2611;DHT22;5612;51.134;17.058;2022-10-17T09:15:26;32.60;1.00
2611;DHT22;5612;51.134;17.058;2022-10-17T09:18:00;32.50;1.00
2611;DHT22;5612;51.134;17.058;2022-10-17T09:20:32;33.00;1.00
2611;DHT22;5612;51.134;17.058;2022-10-17T09:23:04;32.00;1.00
2611;DHT22;5612;51.134;17.058;2022-10-17T09:25:45;31.50;1.00
2611;DHT22;5612;51.134;17.058;2022-10-17T09:28:19;32.00;1.00
2611;DHT22;5612;51.134;17.058;2022-10-17T09:30:55;33.00;1.00
2611;DHT22;5612;51.134;17.058;2022-10-17T09:33:27;33.80;1.00
2611;DHT22;5612;51.134;17.058;2022-10-17T09:36:19;34.80;1.00
2611;DHT22;5612;51.134;17.058;2022-10-17T09:38:51;34.60;1.00
2611;DHT22;5612;51.134;17.058;2022-10-17T09:41:23;34.20;1.00
2611;DHT22;5612;51.134;17.058;2022-10-17T09:44:17;34.20;1.00
2611;DHT22;5612;51.134;17.058;2022-10-17T09:47:02;33.30;1.00
2611;DHT22;5612;51.134;17.058;2022-10-17T09:49:36;32.60;1.00
2611;DHT22;5612;51.134;17.058;2022-10-17T09:52:08;33.30;1.00
2611;DHT22;5612;51.134;17.058;2022-10-17T09:54:42;33.10;1.00
2611;DHT22;5612;51.134;17.058;2022-10-17T09:57:15;33.40;1.00
2611;DHT22;5612;51.134;17.058;2022-10-17T09:59:46;34.00;1.00
2611;DHT22;5612;51.134;17.058;2022-10-17T10:02:20;34.30;1.00
2611;DHT22;5612;51.134;17.058;2022-10-17T10:05:13;34.80;1.00
2611;DHT22;5612;51.134;17.058;2022-10-17T10:07:59;34.90;1.00
2611;DHT22;5612;51.134;17.058;2022-10-17T10:10:29;35.40;1.00
2611;DHT22;5612;51.134;17.058;2022-10-17T10:13:14;34.80;1.00
2611;DHT22;5612;51.134;17.058;2022-10-17T10:15:45;34.40;1.00
2611;DHT22;5612;51.134;17.058;2022-10-17T10:18:28;33.90;1.00
2611;DHT22;5612;51.134;17.058;2022-10-17T10:21:05;34.50;1.00
2611;DHT22;5612;51.134;17.058;2022-10-17T10:23:34;33.70;1.00
2611;DHT22;5612;51.134;17.058;2022-10-17T10:26:19;33.40;1.00
2611;DHT22;5612;51.134;17.058;2022-10-17T10:28:56;33.70;1.00
2611;DHT22;5612;51.134;17.058;2022-10-17T10:31:28;34.40;1.00
2611;DHT22;5612;51.134;17.058;2022-10-17T10:33:59;34.20;1.00
2611;DHT22;5612;51.134;17.058;2022-10-17T10:36:55;34.30;1.00
2611;DHT22;5612;51.134;17.058;2022-10-17T10:42:22;34.10;1.00
2611;DHT22;5612;51.134;17.058;2022-10-17T10:44:56;33.70;1.00
2611;DHT22;5612;51.134;17.058;2022-10-17T10:47:27;33.40;1.00
2611;DHT22;5612;51.134;17.058;2022-10-17T10:50:16;33.80;1.00
2611;DHT22;5612;51.134;17.058;2022-10-17T10:52:49;34.30;1.00
2611;DHT22;5612;51.134;17.058;2022-10-17T10:55:25;34.20;1.00
2611;DHT22;5612;51.134;17.058;2022-10-17T10:58:00;33.80;1.00
2611;DHT22;5612;51.134;17.058;2022-10-17T11:00:34;33.90;1.00
2611;DHT22;5612;51.134;17.058;2022-10-17T11:03:14;34.20;1.00
2611;DHT22;5612;51.134;17.058;2022-10-17T11:05:48;34.40;1.00
2611;DHT22;5612;51.134;17.058;2022-10-17T11:08:25;33.60;1.00
2611;DHT22;5612;51.134;17.058;2022-10-17T11:11:08;33.00;1.00
2611;DHT22;5612;51.134;17.058;2022-10-17T11:13:48;33.30;1.00
2611;DHT22;5612;51.134;17.058;2022-10-17T11:16:30;33.40;1.00
2611;DHT22;5612;51.134;17.058;2022-10-17T11:19:08;33.40;1.00
2611;DHT22;5612;51.134;17.058;2022-10-17T11:21:45;32.60;1.00
2611;DHT22;5612;51.134;17.058;2022-10-17T11:24:23;32.70;1.00
2611;DHT22;5612;51.134;17.058;2022-10-17T11:26:57;33.00;1.00
2611;DHT22;5612;51.134;17.058;2022-10-17T11:29:29;33.10;1.00
2611;DHT22;5612;51.134;17.058;2022-10-17T11:32:04;33.60;1.00
2611;DHT22;5612;51.134;17.058;2022-10-17T11:34:39;34.10;1.00
2611;DHT22;5612;51.134;17.058;2022-10-17T11:37:13;34.90;1.00
2611;DHT22;5612;51.134;17.058;2022-10-17T11:39:47;35.20;1.00
2611;DHT22;5612;51.134;17.058;2022-10-17T11:42:20;35.40;1.00
2611;DHT22;5612;51.134;17.058;2022-10-17T11:44:54;35.30;1.00
2611;DHT22;5612;51.134;17.058;2022-10-17T11:47:30;35.80;1.00
2611;DHT22;5612;51.134;17.058;2022-10-17T11:50:04;35.60;1.00
2611;DHT22;5612;51.134;17.058;2022-10-17T11:52:57;33.90;1.00
2611;DHT22;5612;51.134;17.058;2022-10-17T11:55:29;33.50;1.00
2611;DHT22;5612;51.134;17.058;2022-10-17T11:58:15;33.10;1.00
2611;DHT22;5612;51.134;17.058;2022-10-17T12:00:53;32.80;1.00
2611;DHT22;5612;51.134;17.058;2022-10-17T12:03:35;32.80;1.00
2611;DHT22;5612;51.134;17.058;2022-10-17T12:06:14;32.50;1.00
2611;DHT22;5612;51.134;17.058;2022-10-17T12:08:50;32.40;1.00
2611;DHT22;5612;51.134;17.058;2022-10-17T12:11:31;32.10;1.00
2611;DHT22;5612;51.134;17.058;2022-10-17T12:14:02;32.20;1.00
2611;DHT22;5612;51.134;17.058;2022-10-17T12:16:47;31.90;1.00
2611;DHT22;5612;51.134;17.058;2022-10-17T12:19:31;31.70;1.00
2611;DHT22;5612;51.134;17.058;2022-10-17T12:22:18;31.40;1.00
2611;DHT22;5612;51.134;17.058;2022-10-17T12:24:56;31.40;1.00
2611;DHT22;5612;51.134;17.058;2022-10-17T12:27:42;32.20;1.00
2611;DHT22;5612;51.134;17.058;2022-10-17T12:30:52;32.50;1.00
2611;DHT22;5612;51.134;17.058;2022-10-17T12:33:33;33.10;1.00
2611;DHT22;5612;51.134;17.058;2022-10-17T12:39:51;33.00;1.00
2611;DHT22;5612;51.134;17.058;2022-10-17T12:42:48;32.30;1.00
2611;DHT22;5612;51.134;17.058;2022-10-17T12:45:45;32.00;1.00
2611;DHT22;5612;51.134;17.058;2022-10-17T12:51:21;32.30;1.00
2611;DHT22;5612;51.134;17.058;2022-10-17T12:54:11;32.00;1.00
2611;DHT22;5612;51.134;17.058;2022-10-17T12:56:45;32.40;1.00
2611;DHT22;5612;51.134;17.058;2022-10-17T12:59:18;32.60;1.00
2611;DHT22;5612;51.134;17.058;2022-10-17T13:01:50;32.30;1.00
2611;DHT22;5612;51.134;17.058;2022-10-17T13:04:21;32.40;1.00
2611;DHT22;5612;51.134;17.058;2022-10-17T13:06:53;32.30;1.00
2611;DHT22;5612;51.134;17.058;2022-10-17T13:09:25;32.50;1.00
2611;DHT22;5612;51.134;17.058;2022-10-17T13:11:59;32.40;1.00
2611;DHT22;5612;51.134;17.058;2022-10-17T13:14:31;32.30;1.00
2611;DHT22;5612;51.134;17.058;2022-10-17T13:17:02;32.30;1.00
2611;DHT22;5612;51.134;17.058;2022-10-17T13:19:39;32.60;1.00
2611;DHT22;5612;51.134;17.058;2022-10-17T13:22:12;32.60;1.00
2611;DHT22;5612;51.134;17.058;2022-10-17T13:24:42;33.00;1.00
2611;DHT22;5612;51.134;17.058;2022-10-17T13:27:26;33.20;1.00
2611;DHT22;5612;51.134;17.058;2022-10-17T13:29:56;33.60;1.00
2611;DHT22;5612;51.134;17.058;2022-10-17T13:32:33;33.80;1.00
2611;DHT22;5612;51.134;17.058;2022-10-17T13:35:08;33.80;1.00
2611;DHT22;5612;51.134;17.058;2022-10-17T13:37:38;34.00;1.00
2611;DHT22;5612;51.134;17.058;2022-10-17T13:40:15;34.20;1.00
2611;DHT22;5612;51.134;17.058;2022-10-17T13:43:12;34.00;1.00
2611;DHT22;5612;51.134;17.058;2022-10-17T13:45:46;34.10;1.00
2611;DHT22;5612;51.134;17.058;2022-10-17T13:48:19;34.50;1.00
2611;DHT22;5612;51.134;17.058;2022-10-17T13:50:50;33.90;1.00
2611;DHT22;5612;51.134;17.058;2022-10-17T13:53:24;33.30;1.00
2611;DHT22;5612;51.134;17.058;2022-10-17T13:55:59;32.90;1.00
2611;DHT22;5612;51.134;17.058;2022-10-17T13:58:51;33.20;1.00
2611;DHT22;5612;51.134;17.058;2022-10-17T14:01:24;34.00;1.00
2611;DHT22;5612;51.134;17.058;2022-10-17T14:03:53;34.60;1.00
2611;DHT22;5612;51.134;17.058;2022-10-17T14:06:40;34.10;1.00
2611;DHT22;5612;51.134;17.058;2022-10-17T14:09:19;33.20;1.00
2611;DHT22;5612;51.134;17.058;2022-10-17T14:11:58;32.80;1.00
2611;DHT22;5612;51.134;17.058;2022-10-17T14:14:31;33.00;1.00
2611;DHT22;5612;51.134;17.058;2022-10-17T14:17:23;33.00;1.00
2611;DHT22;5612;51.134;17.058;2022-10-17T14:19:58;32.80;1.00
2611;DHT22;5612;51.134;17.058;2022-10-17T14:22:50;32.60;1.00
2611;DHT22;5612;51.134;17.058;2022-10-17T14:25:40;32.60;1.00
2611;DHT22;5612;51.134;17.058;2022-10-17T14:28:13;32.60;1.00
2611;DHT22;5612;51.134;17.058;2022-10-17T14:30:45;32.40;1.00
2611;DHT22;5612;51.134;17.058;2022-10-17T14:33:28;32.50;1.00
2611;DHT22;5612;51.134;17.058;2022-10-17T14:36:00;32.80;1.00
2611;DHT22;5612;51.134;17.058;2022-10-17T14:38:29;32.50;1.00
2611;DHT22;5612;51.134;17.058;2022-10-17T14:41:00;32.40;1.00
2611;DHT22;5612;51.134;17.058;2022-10-17T14:43:58;32.10;1.00
2611;DHT22;5612;51.134;17.058;2022-10-17T14:46:30;31.80;1.00
2611;DHT22;5612;51.134;17.058;2022-10-17T14:49:03;31.90;1.00
2611;DHT22;5612;51.134;17.058;2022-10-17T14:51:33;31.80;1.00
2611;DHT22;5612;51.134;17.058;2022-10-17T14:54:25;31.70;1.00
2611;DHT22;5612;51.134;17.058;2022-10-17T14:56:56;31.60;1.00
2611;DHT22;5612;51.134;17.058;2022-10-17T14:59:25;30.80;1.00
2611;DHT22;5612;51.134;17.058;2022-10-17T15:02:15;30.40;1.00
2611;DHT22;5612;51.134;17.058;2022-10-17T15:04:44;29.90;1.00
2611;DHT22;5612;51.134;17.058;2022-10-17T15:07:14;29.50;1.00
2611;DHT22;5612;51.134;17.058;2022-10-17T15:09:46;29.30;1.00
2611;DHT22;5612;51.134;17.058;2022-10-17T15:12:17;28.90;1.00
2611;DHT22;5612;51.134;17.058;2022-10-17T15:14:47;28.30;1.00
2611;DHT22;5612;51.134;17.058;2022-10-17T15:17:19;27.90;1.00
2611;DHT22;5612;51.134;17.058;2022-10-17T15:19:49;27.60;1.00
2611;DHT22;5612;51.134;17.058;2022-10-17T15:22:18;27.30;1.00
2611;DHT22;5612;51.134;17.058;2022-10-17T15:24:47;26.90;1.00
2611;DHT22;5612;51.134;17.058;2022-10-17T15:27:17;26.60;1.00
2611;DHT22;5612;51.134;17.058;2022-10-17T15:29:46;26.30;1.00
2611;DHT22;5612;51.134;17.058;2022-10-17T15:32:15;26.10;1.00
2611;DHT22;5612;51.134;17.058;2022-10-17T15:34:46;25.80;1.00
2611;DHT22;5612;51.134;17.058;2022-10-17T15:37:18;25.30;1.00
2611;DHT22;5612;51.134;17.058;2022-10-17T15:39:49;25.00;1.00
2611;DHT22;5612;51.134;17.058;2022-10-17T15:42:21;24.90;1.00
2611;DHT22;5612;51.134;17.058;2022-10-17T15:44:54;24.70;1.00
2611;DHT22;5612;51.134;17.058;2022-10-17T15:47:26;24.50;1.00
2611;DHT22;5612;51.134;17.058;2022-10-17T15:49:59;24.40;1.00
2611;DHT22;5612;51.134;17.058;2022-10-17T15:52:28;24.30;1.00
2611;DHT22;5612;51.134;17.058;2022-10-17T15:54:57;24.10;1.00
2611;DHT22;5612;51.134;17.058;2022-10-17T15:57:34;23.90;1.00
2611;DHT22;5612;51.134;17.058;2022-10-17T16:00:06;23.80;1.00
2611;DHT22;5612;51.134;17.058;2022-10-17T16:02:42;23.60;1.00
2611;DHT22;5612;51.134;17.058;2022-10-17T16:05:17;23.50;1.00
2611;DHT22;5612;51.134;17.058;2022-10-17T16:07:49;23.30;1.00
2611;DHT22;5612;51.134;17.058;2022-10-17T16:10:20;23.20;1.00
2611;DHT22;5612;51.134;17.058;2022-10-17T16:12:50;23.10;1.00
2611;DHT22;5612;51.134;17.058;2022-10-17T16:15:22;23.10;1.00
2611;DHT22;5612;51.134;17.058;2022-10-17T16:17:52;23.00;1.00
2611;DHT22;5612;51.134;17.058;2022-10-17T16:20:23;22.80;1.00
2611;DHT22;5612;51.134;17.058;2022-10-17T16:22:53;22.70;1.00
2611;DHT22;5612;51.134;17.058;2022-10-17T16:25:28;22.60;1.00
2611;DHT22;5612;51.134;17.058;2022-10-17T16:27:58;22.50;1.00
2611;DHT22;5612;51.134;17.058;2022-10-17T16:30:29;22.40;1.00
2611;DHT22;5612;51.134;17.058;2022-10-17T16:32:59;22.30;1.00
2611;DHT22;5612;51.134;17.058;2022-10-17T16:35:30;22.20;1.00
2611;DHT22;5612;51.134;17.058;2022-10-17T16:38:04;22.20;1.00
2611;DHT22;5612;51.134;17.058;2022-10-17T16:40:33;22.00;1.00
2611;DHT22;5612;51.134;17.058;2022-10-17T16:43:02;22.10;1.00
2611;DHT22;5612;51.134;17.058;2022-10-17T16:45:31;22.00;1.00
2611;DHT22;5612;51.134;17.058;2022-10-17T16:47:59;21.90;1.00
2611;DHT22;5612;51.134;17.058;2022-10-17T16:50:30;21.70;1.00
2611;DHT22;5612;51.134;17.058;2022-10-17T16:53:01;21.70;1.00
2611;DHT22;5612;51.134;17.058;2022-10-17T16:55:30;21.50;1.00